Main page
METAR-TAF:

METAR-TAF

Airports :

Antwerp, Belgium

Antwerp International Airport

latitude: 51-12N, longitude: 004-28E, elevation: 12 m

Current weather observation

The report was made 20 minutes ago, at 23:50 UTC
Wind 7 kt from the East/Northeast
Temperature -1°C
Humidity 69%
Pressure 1023 hPa
Visibility 10 km or more
no clouds below 1500 m and no cumulonimbus

METAR: EBAW 222350Z AUTO 06007KT CAVOK M01/M06 Q1023

Time: 01:10 (00:10 UTC)

Forecast

The report was made 1 hour and 10 minutes ago, at 23:00 UTC
Forecast valid from 23 at 00 UTC to 23 at 09 UTC
Wind 8 kt from the East/Northeast
Visibility 10 km or more
no clouds below 1500 m and no cumulonimbus
Probability 30% :
Temporary
from 23 at 05 UTC to 23 at 08 UTC
Broken clouds at a height of 800 ft

TAF: EBAW 222300Z 2300/2309 06008KT CAVOK PROB30 TEMPO 2305/2308 BKN008

Weather observations and forecasts of more than 4000 airports (METAR and TAF reports).

The available stations are represented by yellow and red dots on the map.

Hover mouse over dot to see the name of the station.

Then click to see weather observations and forecasts.

To change the map : click on the green buttons with a black cross to zoom in, on the green button with a dash to zoom out, or on the green arrows for adjacent maps.


METAR-TAF: